createdAt,value
2022-10-24T00:00:02.440Z,1016.7
2022-10-24T00:01:02.332Z,1016.7
2022-10-24T00:02:01.990Z,1016.8
2022-10-24T00:03:02.251Z,1016.8
2022-10-24T00:04:02.369Z,1016.7
2022-10-24T00:05:02.209Z,1016.8
2022-10-24T00:06:02.223Z,1016.7
2022-10-24T00:07:02.068Z,1016.8
2022-10-24T00:08:02.121Z,1016.8
2022-10-24T00:09:01.911Z,1016.8
2022-10-24T00:10:01.936Z,1016.8
2022-10-24T00:11:01.812Z,1016.8
2022-10-24T00:12:02.814Z,1016.8
2022-10-24T00:13:02.639Z,1016.9
2022-10-24T00:14:02.731Z,1016.9
2022-10-24T00:15:02.600Z,1017
2022-10-24T00:16:02.625Z,1017.1
2022-10-24T00:17:02.592Z,1017.1
2022-10-24T00:18:02.425Z,1017.1
2022-10-24T00:19:02.483Z,1017
2022-10-24T00:20:02.436Z,1017
2022-10-24T00:21:02.256Z,1017
2022-10-24T00:22:02.299Z,1017
2022-10-24T00:23:02.147Z,1017
2022-10-24T00:24:02.146Z,1016.9
2022-10-24T00:25:01.935Z,1016.9
2022-10-24T00:26:02.391Z,1016.8
2022-10-24T00:27:02.149Z,1016.8
2022-10-24T00:28:02.170Z,1016.8
2022-10-24T00:29:01.959Z,1016.8
2022-10-24T00:30:01.986Z,1016.9
2022-10-24T00:31:01.803Z,1016.8
2022-10-24T00:32:01.786Z,1016.9
2022-10-24T00:33:02.780Z,1016.9
2022-10-24T00:34:02.624Z,1017
2022-10-24T00:35:02.658Z,1016.9
2022-10-24T00:36:02.502Z,1016.8
2022-10-24T00:37:02.609Z,1016.8
2022-10-24T00:38:02.457Z,1016.8
2022-10-24T00:39:02.945Z,1016.8
2022-10-24T00:40:02.844Z,1016.8
2022-10-24T00:41:01.749Z,1016.8
2022-10-24T00:42:02.835Z,1016.8
2022-10-24T00:43:02.642Z,1016.8
2022-10-24T00:44:02.691Z,1016.8
2022-10-24T00:45:02.616Z,1016.9
2022-10-24T00:46:02.610Z,1016.9
2022-10-24T00:47:02.399Z,1017.1
2022-10-24T00:48:02.425Z,1017.1
2022-10-24T00:49:02.376Z,1017.1
2022-10-24T00:50:02.229Z,1017.1
2022-10-24T00:51:02.238Z,1017
2022-10-24T00:52:02.043Z,1017.1
2022-10-24T00:53:02.062Z,1017
2022-10-24T00:54:01.943Z,1017
2022-10-24T00:55:02.072Z,1017
2022-10-24T00:56:01.868Z,1017.1
2022-10-24T00:57:01.896Z,1017
2022-10-24T00:58:02.831Z,1016.9
2022-10-24T00:59:02.695Z,1016.9
2022-10-24T01:00:02.776Z,1016.8
2022-10-24T01:01:03.209Z,1016.9
2022-10-24T01:02:02.411Z,1016.9
2022-10-24T01:03:02.317Z,1016.9
2022-10-24T01:04:02.285Z,1016.8
2022-10-24T01:05:02.065Z,1016.8
2022-10-24T01:06:02.069Z,1016.8
2022-10-24T01:07:01.870Z,1016.8
2022-10-24T01:08:01.918Z,1016.7
2022-10-24T01:09:01.765Z,1016.8
2022-10-24T01:10:02.990Z,1016.7
2022-10-24T01:11:01.795Z,1016.7
2022-10-24T01:12:02.818Z,1016.7
2022-10-24T01:13:02.690Z,1016.7
2022-10-24T01:14:02.691Z,1016.7
2022-10-24T01:15:02.561Z,1016.7
2022-10-24T01:16:02.621Z,1016.7
2022-10-24T01:17:02.525Z,1016.6
2022-10-24T01:18:02.342Z,1016.7
2022-10-24T01:19:02.418Z,1016.8
2022-10-24T01:20:02.447Z,1016.8
2022-10-24T01:21:02.279Z,1016.8
2022-10-24T01:22:02.340Z,1016.8
2022-10-24T01:23:02.080Z,1016.7
2022-10-24T01:24:02.081Z,1016.8
2022-10-24T01:25:01.972Z,1016.8
2022-10-24T01:26:01.873Z,1016.8
2022-10-24T01:27:01.966Z,1016.8
2022-10-24T01:28:01.927Z,1016.8
2022-10-24T01:29:02.827Z,1016.8
2022-10-24T01:30:02.865Z,1016.8
2022-10-24T01:31:02.786Z,1016.8
2022-10-24T01:32:02.606Z,1016.8
2022-10-24T01:33:02.652Z,1016.8
2022-10-24T01:34:02.482Z,1016.7
2022-10-24T01:35:02.592Z,1016.7
2022-10-24T01:36:02.677Z,1016.7
2022-10-24T01:37:02.473Z,1016.6
2022-10-24T01:38:02.556Z,1016.6
2022-10-24T01:39:02.511Z,1016.6
2022-10-24T01:40:02.353Z,1016.6
2022-10-24T01:41:02.530Z,1016.6
2022-10-24T01:42:02.429Z,1016.6
2022-10-24T01:43:02.199Z,1016.7
2022-10-24T01:44:02.209Z,1016.6
2022-10-24T01:45:02.108Z,1016.7
2022-10-24T01:46:02.225Z,1016.7
2022-10-24T01:47:01.832Z,1016.8
2022-10-24T01:48:01.869Z,1016.8
2022-10-24T01:49:02.819Z,1016.7
2022-10-24T01:50:02.694Z,1016.7
2022-10-24T01:51:02.774Z,1016.7
2022-10-24T01:52:03.006Z,1016.7
2022-10-24T01:53:01.846Z,1016.7
2022-10-24T01:54:01.769Z,1016.7
2022-10-24T01:55:02.791Z,1016.6
2022-10-24T01:56:02.648Z,1016.6
2022-10-24T01:57:02.689Z,1016.6
2022-10-24T01:58:02.568Z,1016.6
2022-10-24T01:59:02.627Z,1016.6
2022-10-24T02:00:02.484Z,1016.7
2022-10-24T02:01:02.834Z,1016.7
2022-10-24T02:02:02.445Z,1016.7
2022-10-24T02:03:02.354Z,1016.7
2022-10-24T02:04:02.360Z,1016.7
2022-10-24T02:05:02.289Z,1016.6
2022-10-24T02:06:02.058Z,1016.6
2022-10-24T02:07:02.059Z,1016.6
2022-10-24T02:08:01.843Z,1016.6
2022-10-24T02:09:02.200Z,1016.7
2022-10-24T02:10:02.016Z,1016.7
2022-10-24T02:11:02.096Z,1016.7
2022-10-24T02:12:01.831Z,1016.7
2022-10-24T02:13:01.862Z,1016.7
2022-10-24T02:14:02.787Z,1016.8
2022-10-24T02:15:02.655Z,1016.7
2022-10-24T02:16:02.770Z,1016.7
2022-10-24T02:17:02.389Z,1016.6
2022-10-24T02:18:02.402Z,1016.6
2022-10-24T02:19:02.342Z,1016.6
2022-10-24T02:20:02.304Z,1016.5
2022-10-24T02:21:02.161Z,1016.5
2022-10-24T02:22:02.080Z,1016.4
2022-10-24T02:23:02.097Z,1016.4
2022-10-24T02:24:01.914Z,1016.4
2022-10-24T02:25:01.957Z,1016.5
2022-10-24T02:26:01.989Z,1016.5
2022-10-24T02:27:01.779Z,1016.6
2022-10-24T02:28:02.798Z,1016.6
2022-10-24T02:29:02.633Z,1016.6
2022-10-24T02:30:02.652Z,1016.5
2022-10-24T02:31:02.606Z,1016.6
2022-10-24T02:32:02.447Z,1016.6
2022-10-24T02:33:02.469Z,1016.5
2022-10-24T02:34:02.610Z,1016.6
2022-10-24T02:35:02.482Z,1016.5
2022-10-24T02:36:02.467Z,1016.5
2022-10-24T02:37:02.407Z,1016.4
2022-10-24T02:38:02.208Z,1016.5
2022-10-24T02:39:02.229Z,1016.5
2022-10-24T02:40:02.018Z,1016.4
2022-10-24T02:41:02.029Z,1016.4
2022-10-24T02:42:01.795Z,1016.4
2022-10-24T02:43:01.829Z,1016.4
2022-10-24T02:44:02.773Z,1016.3
2022-10-24T02:45:02.622Z,1016.2
2022-10-24T02:46:02.669Z,1016.2
2022-10-24T02:47:02.548Z,1016.1
2022-10-24T02:48:02.648Z,1016.1
2022-10-24T02:49:02.523Z,1016.1
2022-10-24T02:50:02.325Z,1016.1
2022-10-24T02:51:02.371Z,1016.2
2022-10-24T02:52:02.306Z,1016.3
2022-10-24T02:53:02.144Z,1016.2
2022-10-24T02:54:02.180Z,1016.2
2022-10-24T02:55:01.943Z,1016.2
2022-10-24T02:56:01.969Z,1016.2
2022-10-24T02:57:01.784Z,1016.3
2022-10-24T02:58:02.839Z,1016.2
2022-10-24T02:59:03.025Z,1016.2
2022-10-24T03:00:01.889Z,1016.2
2022-10-24T03:01:02.283Z,1016.3
2022-10-24T03:02:02.080Z,1016.3
2022-10-24T03:03:02.109Z,1016.3
2022-10-24T03:04:01.847Z,1016.3
2022-10-24T03:05:01.884Z,1016.4
2022-10-24T03:06:01.741Z,1016.3
2022-10-24T03:07:02.842Z,1016.4
2022-10-24T03:08:02.655Z,1016.4
2022-10-24T03:09:02.692Z,1016.4
2022-10-24T03:10:02.528Z,1016.5
2022-10-24T03:11:02.554Z,1016.5
2022-10-24T03:12:02.486Z,1016.5
2022-10-24T03:13:02.312Z,1016.5
2022-10-24T03:14:02.310Z,1016.5
2022-10-24T03:15:02.111Z,1016.5
2022-10-24T03:16:02.125Z,1016.5
2022-10-24T03:17:01.957Z,1016.5
2022-10-24T03:18:02.061Z,1016.5
2022-10-24T03:19:01.831Z,1016.5
2022-10-24T03:20:01.864Z,1016.5
2022-10-24T03:21:02.782Z,1016.4
2022-10-24T03:22:02.628Z,1016.4
2022-10-24T03:23:02.699Z,1016.4
2022-10-24T03:24:02.770Z,1016.3
2022-10-24T03:25:02.777Z,1016.3
2022-10-24T03:26:02.556Z,1016.3
2022-10-24T03:27:02.602Z,1016.4
2022-10-24T03:28:02.552Z,1016.5
2022-10-24T03:29:02.361Z,1016.4
2022-10-24T03:30:02.439Z,1016.3
2022-10-24T03:31:02.370Z,1016.3
2022-10-24T03:32:02.201Z,1016.3
2022-10-24T03:33:02.211Z,1016.2
2022-10-24T03:34:01.993Z,1016.3
2022-10-24T03:35:02.018Z,1016.2
2022-10-24T03:36:01.832Z,1016.3
2022-10-24T03:37:01.872Z,1016.4
2022-10-24T03:38:02.788Z,1016.3
2022-10-24T03:39:02.646Z,1016.3
2022-10-24T03:40:02.721Z,1016.4
2022-10-24T03:41:02.528Z,1016.3
2022-10-24T03:42:02.919Z,1016.4
2022-10-24T03:43:02.718Z,1016.4
2022-10-24T03:44:02.776Z,1016.2
2022-10-24T03:45:02.589Z,1016.2
2022-10-24T03:46:02.582Z,1016.2
2022-10-24T03:47:02.541Z,1016.2
2022-10-24T03:48:02.371Z,1016.2
2022-10-24T03:50:02.110Z,1016.3
2022-10-24T03:51:02.039Z,1016.3
2022-10-24T03:52:01.864Z,1016.2
2022-10-24T03:53:01.956Z,1016.3
2022-10-24T03:54:01.740Z,1016.3
2022-10-24T03:55:02.786Z,1016.2
2022-10-24T03:56:02.626Z,1016.2
2022-10-24T03:57:03.081Z,1016.2
2022-10-24T03:58:01.842Z,1016.2
2022-10-24T03:59:01.877Z,1016.2
2022-10-24T04:00:02.862Z,1016.3
2022-10-24T04:01:03.083Z,1016.2
2022-10-24T04:02:02.228Z,1016.3
2022-10-24T04:03:02.167Z,1016.2
2022-10-24T04:04:01.965Z,1016.2
2022-10-24T04:05:02.031Z,1016.2
2022-10-24T04:06:01.780Z,1016.2
2022-10-24T04:07:02.845Z,1016.2
2022-10-24T04:08:02.676Z,1016.2
2022-10-24T04:09:02.682Z,1016.2
2022-10-24T04:10:02.507Z,1016.1
2022-10-24T04:11:02.547Z,1016.2
2022-10-24T04:12:02.508Z,1016.2
2022-10-24T04:13:02.320Z,1016.1
2022-10-24T04:15:05.595Z,1016.2
2022-10-24T04:16:02.400Z,1016.2
2022-10-24T04:17:02.028Z,1016.2
2022-10-24T04:18:01.823Z,1016.3
2022-10-24T04:19:01.854Z,1016.1
2022-10-24T04:20:02.844Z,1016.2
2022-10-24T04:21:02.665Z,1016.1
2022-10-24T04:22:02.696Z,1016.1
2022-10-24T04:23:05.170Z,1016.2
2022-10-24T04:24:01.965Z,1016.3
2022-10-24T04:25:01.990Z,1016.3
2022-10-24T04:26:01.781Z,1016.3
2022-10-24T04:27:01.875Z,1016.2
2022-10-24T04:28:02.834Z,1016.2
2022-10-24T04:29:02.650Z,1016.2
2022-10-24T04:30:02.710Z,1016.2
2022-10-24T04:31:02.547Z,1016.1
2022-10-24T04:32:02.470Z,1016.2
2022-10-24T04:33:02.543Z,1016.1
2022-10-24T04:34:02.470Z,1016.1
2022-10-24T04:35:02.273Z,1016.1
2022-10-24T04:36:02.285Z,1016
2022-10-24T04:37:02.056Z,1016
2022-10-24T04:38:02.072Z,1016
2022-10-24T04:39:02.051Z,1015.9
2022-10-24T04:40:01.969Z,1016
2022-10-24T04:41:01.793Z,1016.1
2022-10-24T04:42:02.812Z,1016
2022-10-24T04:43:02.635Z,1016
2022-10-24T04:44:02.684Z,1016.1
2022-10-24T04:45:02.544Z,1015.9
2022-10-24T04:46:02.567Z,1015.9
2022-10-24T04:47:02.371Z,1016
2022-10-24T04:48:02.355Z,1016
2022-10-24T04:49:02.379Z,1016
2022-10-24T04:50:02.376Z,1016
2022-10-24T04:51:02.218Z,1016
2022-10-24T04:52:02.259Z,1016
2022-10-24T04:53:02.059Z,1015.9
2022-10-24T04:54:02.070Z,1015.9
2022-10-24T04:55:01.867Z,1015.9
2022-10-24T04:56:01.896Z,1015.9
2022-10-24T04:57:02.778Z,1016
2022-10-24T04:58:02.631Z,1016
2022-10-24T04:59:02.713Z,1016
2022-10-24T05:00:02.533Z,1016
2022-10-24T05:01:02.801Z,1016
2022-10-24T05:02:02.717Z,1016.1
2022-10-24T05:03:02.552Z,1015.9
2022-10-24T05:05:02.577Z,1016
2022-10-24T05:06:02.382Z,1015.9
2022-10-24T05:07:02.362Z,1016
2022-10-24T05:08:02.297Z,1015.9
2022-10-24T05:09:02.149Z,1015.9
2022-10-24T05:10:02.240Z,1015.9
2022-10-24T05:11:01.984Z,1016
2022-10-24T05:12:02.142Z,1016.1
2022-10-24T05:13:01.913Z,1016
2022-10-24T05:14:01.914Z,1016
2022-10-24T05:15:02.842Z,1016.1
2022-10-24T05:16:02.729Z,1015.9
2022-10-24T05:17:02.646Z,1015.9
2022-10-24T05:18:02.689Z,1016
2022-10-24T05:19:02.528Z,1016
2022-10-24T05:20:02.574Z,1016
2022-10-24T05:21:02.512Z,1016
2022-10-24T05:22:08.668Z,1015.9
2022-10-24T05:23:02.667Z,1016
2022-10-24T05:24:02.699Z,1016
2022-10-24T05:25:02.561Z,1016
2022-10-24T05:26:02.588Z,1016
2022-10-24T05:27:02.656Z,1016
2022-10-24T05:28:02.440Z,1016
2022-10-24T05:29:02.627Z,1015.9
2022-10-24T05:30:02.612Z,1015.9
2022-10-24T05:31:02.391Z,1015.9
2022-10-24T05:32:02.275Z,1015.9
2022-10-24T05:33:02.337Z,1016
2022-10-24T05:34:02.157Z,1016.1
2022-10-24T05:35:02.155Z,1016
2022-10-24T05:36:01.950Z,1016
2022-10-24T05:37:01.966Z,1015.9
2022-10-24T05:38:01.783Z,1015.9
2022-10-24T05:39:02.830Z,1016.1
2022-10-24T05:40:02.674Z,1016
2022-10-24T05:41:02.715Z,1016
2022-10-24T05:42:02.539Z,1016
2022-10-24T05:43:02.565Z,1016.2
2022-10-24T05:44:02.500Z,1016
2022-10-24T05:45:02.402Z,1016.1
2022-10-24T05:46:02.388Z,1016.1
2022-10-24T05:47:02.113Z,1016.1
2022-10-24T05:48:02.155Z,1016.2
2022-10-24T05:49:02.001Z,1016.2
2022-10-24T05:50:02.159Z,1016.1
2022-10-24T05:51:01.987Z,1016.2
2022-10-24T05:52:01.974Z,1016.3
2022-10-24T05:53:01.799Z,1016.2
2022-10-24T05:54:03.103Z,1016.2
2022-10-24T05:55:09.113Z,1016.1
2022-10-24T05:56:01.866Z,1016.1
2022-10-24T05:57:01.917Z,1016.2
2022-10-24T05:58:02.839Z,1016.2
2022-10-24T05:59:02.691Z,1016.2
2022-10-24T06:00:02.768Z,1016.1
2022-10-24T06:01:02.715Z,1016.2
2022-10-24T06:02:02.277Z,1016.2
2022-10-24T06:03:02.563Z,1016.2
2022-10-24T06:04:02.508Z,1016.3
2022-10-24T06:05:02.350Z,1016.2
2022-10-24T06:06:02.357Z,1016.2
2022-10-24T06:07:02.297Z,1016.2
2022-10-24T06:08:02.193Z,1016.2
2022-10-24T06:09:02.199Z,1016.3
2022-10-24T06:10:01.941Z,1016.3
2022-10-24T06:11:01.956Z,1016.3
2022-10-24T06:12:01.786Z,1016.4
2022-10-24T06:13:02.837Z,1016.4
2022-10-24T06:14:02.723Z,1016.6
2022-10-24T06:15:02.723Z,1016.4
2022-10-24T06:16:02.571Z,1016.5
2022-10-24T06:17:02.398Z,1016.4
2022-10-24T06:18:02.436Z,1016.6
2022-10-24T06:19:02.365Z,1016.6
2022-10-24T06:20:02.213Z,1016.5
2022-10-24T06:21:02.192Z,1016.5
2022-10-24T06:22:01.967Z,1016.4
2022-10-24T06:23:01.976Z,1016.5
2022-10-24T06:24:01.827Z,1016.5
2022-10-24T06:25:01.876Z,1016.4
2022-10-24T06:26:02.764Z,1016.4
2022-10-24T06:27:02.600Z,1016.4
2022-10-24T06:28:02.865Z,1016.5
2022-10-24T06:29:02.690Z,1016.5
2022-10-24T06:30:02.675Z,1016.5
2022-10-24T06:31:02.528Z,1016.4
2022-10-24T06:32:02.485Z,1016.4
2022-10-24T06:33:02.544Z,1016.4
2022-10-24T06:34:02.453Z,1016.5
2022-10-24T06:35:02.319Z,1016.6
2022-10-24T06:36:02.367Z,1016.5
2022-10-24T06:37:02.351Z,1016.4
2022-10-24T06:38:02.163Z,1016.4
2022-10-24T06:39:02.207Z,1016.4
2022-10-24T06:40:02.052Z,1016.4
2022-10-24T06:41:02.045Z,1016.4
2022-10-24T06:42:01.811Z,1016.4
2022-10-24T06:43:01.844Z,1016.5
2022-10-24T06:44:07.696Z,1016.4
2022-10-24T06:45:02.669Z,1016.5
2022-10-24T06:46:02.670Z,1016.5
2022-10-24T06:47:02.560Z,1016.4
2022-10-24T06:48:02.638Z,1016.4
2022-10-24T06:49:02.538Z,1016.3
2022-10-24T06:50:02.364Z,1016.3
2022-10-24T06:51:02.424Z,1016.4
2022-10-24T06:52:02.300Z,1016.3
2022-10-24T06:53:02.100Z,1016.3
2022-10-24T06:54:02.136Z,1016.3
2022-10-24T06:55:01.987Z,1016.3
2022-10-24T06:56:01.986Z,1016.4
2022-10-24T06:57:01.824Z,1016.5
2022-10-24T06:58:01.847Z,1016.5
2022-10-24T06:59:02.802Z,1016.6
2022-10-24T07:00:02.654Z,1016.8
2022-10-24T07:01:03.230Z,1016.6
2022-10-24T07:02:06.748Z,1016.6
2022-10-24T07:03:02.569Z,1016.5
2022-10-24T07:04:02.634Z,1016.5
2022-10-24T07:05:02.598Z,1016.5
2022-10-24T07:06:02.383Z,1016.5
2022-10-24T07:07:02.418Z,1016.5
2022-10-24T07:08:02.359Z,1016.4
2022-10-24T07:09:02.224Z,1016.4
2022-10-24T07:10:02.276Z,1016.4
2022-10-24T07:11:02.055Z,1016.5
2022-10-24T07:12:02.081Z,1016.4
2022-10-24T07:13:01.852Z,1016.4
2022-10-24T07:14:09.311Z,1016.5
2022-10-24T07:15:02.084Z,1016.5
2022-10-24T07:16:02.112Z,1016.6
2022-10-24T07:17:01.795Z,1016.6
2022-10-24T07:18:02.827Z,1016.6
2022-10-24T07:19:02.677Z,1016.6
2022-10-24T07:20:02.721Z,1016.6
2022-10-24T07:21:02.615Z,1016.5
2022-10-24T07:22:02.599Z,1016.6
2022-10-24T07:23:02.551Z,1016.5
2022-10-24T07:24:02.414Z,1016.5
2022-10-24T07:25:02.462Z,1016.4
2022-10-24T07:26:02.417Z,1016.3
2022-10-24T07:27:02.381Z,1016.3
2022-10-24T07:28:02.199Z,1016.3
2022-10-24T07:29:03.322Z,1016.3
2022-10-24T07:30:06.447Z,1016.3
2022-10-24T07:31:02.237Z,1016.2
2022-10-24T07:32:02.210Z,1016.2
2022-10-24T07:33:02.026Z,1016.2
2022-10-24T07:34:02.047Z,1016.3
2022-10-24T07:35:01.838Z,1016.2
2022-10-24T07:36:02.005Z,1016.2
2022-10-24T07:37:01.797Z,1016.2
2022-10-24T07:38:02.854Z,1016.3
2022-10-24T07:39:02.660Z,1016.3
2022-10-24T07:40:02.721Z,1016.3
2022-10-24T07:41:02.548Z,1016.3
2022-10-24T07:42:02.553Z,1016.3
2022-10-24T07:43:02.502Z,1016.2
2022-10-24T07:44:02.427Z,1016.4
2022-10-24T07:45:02.411Z,1016.3
2022-10-24T07:46:02.347Z,1016.3
2022-10-24T07:47:01.870Z,1016.3
2022-10-24T07:48:01.901Z,1016.2
2022-10-24T07:49:02.843Z,1016.2
2022-10-24T07:50:02.694Z,1016.1
2022-10-24T07:51:02.727Z,1016.1
2022-10-24T07:52:02.548Z,1016.2
2022-10-24T07:53:02.539Z,1016.2
2022-10-24T07:54:02.484Z,1016.2
2022-10-24T07:55:02.420Z,1016.2
2022-10-24T07:56:02.318Z,1016.1
2022-10-24T07:57:02.137Z,1016.3
2022-10-24T07:58:02.086Z,1016.5
2022-10-24T07:59:41.603Z,1016.3
2022-10-24T08:00:01.908Z,1016.3
2022-10-24T08:01:02.071Z,1016.3
2022-10-24T08:02:01.879Z,1016.3
2022-10-24T08:03:01.882Z,1016.2
2022-10-24T08:04:01.763Z,1016.2
2022-10-24T08:05:02.813Z,1016.2
2022-10-24T08:06:02.805Z,1016.2
2022-10-24T08:07:02.730Z,1016.2
2022-10-24T08:08:37.769Z,1016.2
2022-10-24T08:09:01.819Z,1016.1
2022-10-24T08:10:02.825Z,1016.1
2022-10-24T08:11:02.693Z,1016.1
2022-10-24T08:12:02.721Z,1016.2
2022-10-24T08:13:02.560Z,1016.3
2022-10-24T08:14:02.604Z,1016.4
2022-10-24T08:15:03.366Z,1016.5
2022-10-24T08:16:02.138Z,1016.6
2022-10-24T08:17:02.420Z,1016.6
2022-10-24T08:18:02.483Z,1016.5
2022-10-24T08:19:02.421Z,1016.5
2022-10-24T08:20:02.266Z,1016.4
2022-10-24T08:21:02.339Z,1016.3
2022-10-24T08:22:02.264Z,1016.2
2022-10-24T08:23:02.083Z,1016.1
2022-10-24T08:24:02.113Z,1016.1
2022-10-24T08:25:01.882Z,1016.2
2022-10-24T08:26:02.000Z,1016.1
2022-10-24T08:27:01.778Z,1016
2022-10-24T08:28:09.469Z,1016
2022-10-24T08:29:02.293Z,1015.9
2022-10-24T08:30:02.310Z,1015.8
2022-10-24T08:31:02.120Z,1015.9
2022-10-24T08:32:02.131Z,1015.9
2022-10-24T08:33:02.175Z,1016
2022-10-24T08:34:01.941Z,1016.1
2022-10-24T08:35:01.955Z,1016.1
2022-10-24T08:36:01.783Z,1016.2
2022-10-24T08:37:02.833Z,1016.2
2022-10-24T08:38:02.657Z,1016.4
2022-10-24T08:39:02.714Z,1016.4
2022-10-24T08:40:02.582Z,1016.5
2022-10-24T08:41:02.586Z,1016.6
2022-10-24T08:42:02.494Z,1016.5
2022-10-24T08:43:02.354Z,1016.6
2022-10-24T08:44:02.388Z,1016.5
2022-10-24T08:45:02.309Z,1016.5
2022-10-24T08:46:02.089Z,1016.4
2022-10-24T08:47:02.151Z,1016.4
2022-10-24T08:48:02.141Z,1016.5
2022-10-24T08:49:02.002Z,1016.4
2022-10-24T08:50:01.938Z,1016.4
2022-10-24T08:51:01.796Z,1016.4
2022-10-24T08:52:01.881Z,1016.3
2022-10-24T08:53:02.837Z,1016.3
2022-10-24T08:54:02.681Z,1016.3
2022-10-24T08:55:09.031Z,1016.2
2022-10-24T08:56:01.883Z,1016.2
2022-10-24T08:57:01.883Z,1016.2
2022-10-24T08:58:02.750Z,1016.2
2022-10-24T08:59:02.619Z,1016.2
2022-10-24T09:00:02.682Z,1016.2
2022-10-24T09:01:02.877Z,1016.3
2022-10-24T09:02:07.914Z,1016.3
2022-10-24T09:03:02.117Z,1016.3
2022-10-24T09:04:02.118Z,1016.4
2022-10-24T09:05:01.912Z,1016.4
2022-10-24T09:06:01.884Z,1016.5
2022-10-24T09:07:02.821Z,1016.6
2022-10-24T09:08:02.788Z,1016.5
2022-10-24T09:09:02.673Z,1016.5
2022-10-24T09:10:02.555Z,1016.5
2022-10-24T09:11:02.595Z,1016.4
2022-10-24T09:12:02.574Z,1016.4
2022-10-24T09:13:02.402Z,1016.4
2022-10-24T09:14:02.450Z,1016.4
2022-10-24T09:15:03.524Z,1016.4
2022-10-24T09:16:02.332Z,1016.3
2022-10-24T09:17:01.921Z,1016.4
2022-10-24T09:18:01.921Z,1016.3
2022-10-24T09:19:01.765Z,1016.3
2022-10-24T09:20:02.821Z,1016.2
2022-10-24T09:21:02.657Z,1016.3
2022-10-24T09:22:02.697Z,1016.2
2022-10-24T09:23:02.570Z,1016.4
2022-10-24T09:24:02.632Z,1016.4
2022-10-24T09:25:02.508Z,1016.5
2022-10-24T09:26:02.399Z,1016.4
2022-10-24T09:27:02.397Z,1016.5
2022-10-24T09:28:02.363Z,1016.5
2022-10-24T09:29:02.153Z,1016.5
2022-10-24T09:30:02.188Z,1016.6
2022-10-24T09:31:01.988Z,1016.7
2022-10-24T09:32:01.984Z,1016.7
2022-10-24T09:33:02.060Z,1016.7
2022-10-24T09:34:01.806Z,1016.6
2022-10-24T09:35:01.882Z,1016.6
2022-10-24T09:36:02.780Z,1016.5
2022-10-24T09:37:02.646Z,1016.4
2022-10-24T09:38:02.597Z,1016.4
2022-10-24T09:39:02.508Z,1016.4
2022-10-24T09:40:02.355Z,1016.2
2022-10-24T09:41:02.380Z,1016.3
2022-10-24T09:42:02.133Z,1016.3
2022-10-24T09:43:02.157Z,1016.3
2022-10-24T09:44:02.039Z,1016.3
2022-10-24T09:45:02.034Z,1016.4
2022-10-24T09:46:01.790Z,1016.3
2022-10-24T09:47:01.871Z,1016.3
2022-10-24T09:48:01.832Z,1016.3
2022-10-24T09:49:02.784Z,1016.3
2022-10-24T09:50:02.654Z,1016.3
2022-10-24T09:51:02.610Z,1016.2
2022-10-24T09:52:02.555Z,1016.3
2022-10-24T09:53:02.498Z,1016.3
2022-10-24T09:54:02.410Z,1016.4
2022-10-24T09:55:02.331Z,1016.5
2022-10-24T09:56:02.281Z,1016.4
2022-10-24T09:57:02.354Z,1016.4
2022-10-24T09:58:02.157Z,1016.3
2022-10-24T09:59:02.159Z,1016.2
2022-10-24T10:00:02.051Z,1016.2
2022-10-24T10:01:02.404Z,1016.1
2022-10-24T10:02:02.874Z,1016.1
2022-10-24T10:03:01.769Z,1016.1
2022-10-24T10:04:13.052Z,1016.2
2022-10-24T10:05:01.866Z,1016.2
2022-10-24T10:06:01.831Z,1016.2
2022-10-24T10:07:01.908Z,1016.3
2022-10-24T10:08:02.775Z,1016.3
2022-10-24T10:09:02.700Z,1016.3
2022-10-24T10:10:02.757Z,1016.3
2022-10-24T10:11:02.585Z,1016.3
2022-10-24T10:12:03.873Z,1016.2
2022-10-24T10:13:02.684Z,1016.2
2022-10-24T10:14:02.585Z,1016.1
2022-10-24T10:15:02.643Z,1016
2022-10-24T10:16:02.477Z,1016
2022-10-24T10:17:02.221Z,1016
2022-10-24T10:18:02.162Z,1016
2022-10-24T10:19:02.033Z,1016
2022-10-24T10:20:02.032Z,1016
2022-10-24T10:21:01.880Z,1016
2022-10-24T10:22:01.838Z,1016.1
2022-10-24T10:23:01.773Z,1016.1
2022-10-24T10:24:02.781Z,1016.1
2022-10-24T10:25:02.874Z,1016.1
2022-10-24T10:26:02.733Z,1016.1
2022-10-24T10:27:02.642Z,1016
2022-10-24T10:28:03.752Z,1016.1
2022-10-24T10:29:02.548Z,1016
2022-10-24T10:30:02.508Z,1016
2022-10-24T10:31:02.437Z,1016
2022-10-24T10:32:02.412Z,1016.1
2022-10-24T10:33:02.507Z,1016.1
2022-10-24T10:34:02.538Z,1016.1
2022-10-24T10:35:02.393Z,1016
2022-10-24T10:36:02.254Z,1016
2022-10-24T10:37:02.199Z,1016.1
2022-10-24T10:38:02.145Z,1016.1
2022-10-24T10:39:02.062Z,1016.1
2022-10-24T10:40:01.966Z,1016.1
2022-10-24T10:41:01.891Z,1016.2
2022-10-24T10:42:01.843Z,1016.2
2022-10-24T10:43:01.785Z,1016.2
2022-10-24T10:44:02.720Z,1016.3
2022-10-24T10:45:02.668Z,1016.3
2022-10-24T10:46:02.558Z,1016.3
2022-10-24T10:47:02.674Z,1016.3
2022-10-24T10:48:02.608Z,1016.3
2022-10-24T10:49:02.881Z,1016.3
2022-10-24T10:50:02.696Z,1016.2
2022-10-24T10:51:08.725Z,1016.2
2022-10-24T10:52:02.521Z,1016.1
2022-10-24T10:53:02.465Z,1016.1
2022-10-24T10:54:02.397Z,1016.1
2022-10-24T10:55:02.350Z,1016.1
2022-10-24T10:56:02.376Z,1016.1
2022-10-24T10:57:02.339Z,1016.1
2022-10-24T10:58:02.288Z,1016
2022-10-24T10:59:02.140Z,1016
2022-10-24T11:00:02.207Z,1016
2022-10-24T11:01:02.663Z,1016
2022-10-24T11:02:02.779Z,1016
2022-10-24T11:03:02.773Z,1016.1
2022-10-24T11:04:02.637Z,1016
2022-10-24T11:05:02.696Z,1016
2022-10-24T11:06:02.471Z,1016
2022-10-24T11:07:02.555Z,1016
2022-10-24T11:08:02.442Z,1016
2022-10-24T11:09:02.306Z,1016.1
2022-10-24T11:10:02.332Z,1016
2022-10-24T11:11:02.288Z,1016
2022-10-24T11:12:02.098Z,1016
2022-10-24T11:13:02.155Z,1016
2022-10-24T11:14:01.911Z,1016
2022-10-24T11:15:01.969Z,1016.1
2022-10-24T11:16:01.798Z,1016.1
2022-10-24T11:17:02.010Z,1015.9
2022-10-24T11:18:02.033Z,1016.1
2022-10-24T11:19:01.852Z,1016
2022-10-24T11:20:01.918Z,1016.1
2022-10-24T11:21:02.809Z,1016.1
2022-10-24T11:22:02.659Z,1016.1
2022-10-24T11:23:02.651Z,1016.1
2022-10-24T11:24:02.520Z,1016.1
2022-10-24T11:25:02.655Z,1016.1
2022-10-24T11:26:02.516Z,1016.1
2022-10-24T11:27:02.312Z,1016.1
2022-10-24T11:28:02.365Z,1016.1
2022-10-24T11:29:02.345Z,1016.1
2022-10-24T11:30:02.126Z,1016.1
2022-10-24T11:31:02.155Z,1016.1
2022-10-24T11:32:01.936Z,1016
2022-10-24T11:33:01.927Z,1016.1
2022-10-24T11:34:01.890Z,1016
2022-10-24T11:35:02.826Z,1016.1
2022-10-24T11:36:02.683Z,1016.2
2022-10-24T11:37:02.735Z,1016.1
2022-10-24T11:38:02.580Z,1016.2
2022-10-24T11:39:02.711Z,1016.1
2022-10-24T11:40:02.698Z,1016.2
2022-10-24T11:41:02.893Z,1016.2
2022-10-24T11:42:02.267Z,1016.2
2022-10-24T11:43:02.694Z,1016.2
2022-10-24T11:44:02.902Z,1016.3
2022-10-24T11:45:02.720Z,1016.2
2022-10-24T11:46:02.758Z,1016.1
2022-10-24T11:47:07.065Z,1016.1
2022-10-24T11:48:01.817Z,1016.1
2022-10-24T11:49:01.870Z,1016
2022-10-24T11:50:01.784Z,1016
2022-10-24T11:51:02.843Z,1016
2022-10-24T11:52:02.671Z,1015.9
2022-10-24T11:53:02.673Z,1016
2022-10-24T11:54:02.543Z,1016
2022-10-24T11:55:02.628Z,1016
2022-10-24T11:56:02.430Z,1015.9
2022-10-24T11:57:02.657Z,1015.9
2022-10-24T11:58:02.558Z,1015.9
2022-10-24T11:59:02.396Z,1015.9
2022-10-24T12:00:02.414Z,1015.9
2022-10-24T12:01:02.526Z,1015.9
2022-10-24T12:02:02.312Z,1015.9
2022-10-24T12:03:02.638Z,1016
2022-10-24T12:04:02.574Z,1015.9
2022-10-24T12:05:02.390Z,1015.9
2022-10-24T12:06:02.473Z,1015.9
2022-10-24T12:07:02.364Z,1015.9
2022-10-24T12:08:02.260Z,1015.9
2022-10-24T12:09:02.128Z,1015.8
2022-10-24T12:10:02.145Z,1015.9
2022-10-24T12:11:02.115Z,1015.9
2022-10-24T12:12:01.879Z,1015.8
2022-10-24T12:13:01.919Z,1015.8
2022-10-24T12:15:02.688Z,1015.8
2022-10-24T12:16:02.741Z,1015.8
2022-10-24T12:17:02.421Z,1015.8
2022-10-24T12:18:02.393Z,1015.8
2022-10-24T12:19:02.386Z,1015.8
2022-10-24T12:20:02.296Z,1015.7
2022-10-24T12:21:02.311Z,1015.8
2022-10-24T12:22:02.095Z,1015.7
2022-10-24T12:23:02.152Z,1015.8
2022-10-24T12:24:01.987Z,1015.7
2022-10-24T12:25:01.952Z,1015.7
2022-10-24T12:26:01.853Z,1015.6
2022-10-24T12:27:02.907Z,1015.7
2022-10-24T12:28:02.675Z,1015.7
2022-10-24T12:29:02.756Z,1015.6
2022-10-24T12:30:02.576Z,1015.6
2022-10-24T12:31:02.622Z,1015.7
2022-10-24T12:32:02.338Z,1015.6
2022-10-24T12:33:02.265Z,1015.6
2022-10-24T12:34:02.233Z,1015.6
2022-10-24T12:35:31.877Z,1015.6
2022-10-24T12:36:02.736Z,1015.6
2022-10-24T12:37:02.785Z,1015.6
2022-10-24T12:38:02.609Z,1015.6